createdAt,value
2022-12-05T00:02:16.313Z,101.90
2022-12-05T00:07:38.973Z,91.77
2022-12-05T00:13:02.284Z,91.30
2022-12-05T00:18:24.752Z,108.83
2022-12-05T00:23:47.399Z,94.67
2022-12-05T00:29:10.003Z,102.70
2022-12-05T00:34:32.390Z,109.33
2022-12-05T00:39:54.821Z,97.10
2022-12-05T00:45:17.538Z,106.13
2022-12-05T00:50:39.746Z,114.67
2022-12-05T00:56:05.000Z,105.07
2022-12-05T01:01:36.694Z,105.93
2022-12-05T01:06:59.088Z,103.90
2022-12-05T01:12:21.657Z,103.63
2022-12-05T01:17:44.404Z,96.80
2022-12-05T01:23:06.936Z,108.80
2022-12-05T01:28:29.270Z,105.97
2022-12-05T01:33:56.053Z,101.60
2022-12-05T01:39:19.065Z,93.97
2022-12-05T01:44:41.201Z,104.23
2022-12-05T01:50:04.313Z,94.47
2022-12-05T01:55:26.513Z,95.10
2022-12-05T02:00:49.117Z,105.77
2022-12-05T02:06:13.175Z,103.70
2022-12-05T02:11:43.087Z,111.87
2022-12-05T02:17:27.813Z,100.80
2022-12-05T02:22:55.920Z,111.43
2022-12-05T02:29:02.456Z,87.37
2022-12-05T02:34:45.205Z,105.70
2022-12-05T02:40:13.413Z,113.73
2022-12-05T02:45:39.390Z,100.90
2022-12-05T02:51:05.440Z,105.53
2022-12-05T02:56:31.107Z,100.93
2022-12-05T03:01:53.506Z,93.40
2022-12-05T03:07:19.815Z,94.50
2022-12-05T03:12:48.914Z,88.00
2022-12-05T03:18:18.478Z,87.47
2022-12-05T03:23:56.518Z,85.97
2022-12-05T03:29:25.848Z,85.30
2022-12-05T03:35:06.449Z,83.23
2022-12-05T03:41:06.874Z,88.43
2022-12-05T03:46:39.742Z,83.97
2022-12-05T03:52:02.601Z,84.87
2022-12-05T03:57:29.927Z,83.70
2022-12-05T04:02:57.888Z,71.80
2022-12-05T04:08:26.951Z,86.70
2022-12-05T04:13:57.341Z,74.10
2022-12-05T04:19:25.489Z,77.53
2022-12-05T04:25:08.158Z,71.93
2022-12-05T04:30:39.038Z,71.60
2022-12-05T04:36:13.602Z,69.03
2022-12-05T04:41:39.734Z,70.23
2022-12-05T04:47:06.041Z,56.03
2022-12-05T04:52:29.518Z,59.83
2022-12-05T04:58:00.247Z,54.37
2022-12-05T05:03:25.940Z,49.30
2022-12-05T05:08:53.040Z,59.07
2022-12-05T05:14:15.209Z,44.47
2022-12-05T05:19:37.440Z,44.97
2022-12-05T05:24:59.958Z,45.30
2022-12-05T05:30:25.051Z,46.90
2022-12-05T05:35:47.452Z,40.87
2022-12-05T05:41:19.982Z,46.53
2022-12-05T05:46:42.591Z,41.07
2022-12-05T05:52:05.323Z,52.03
2022-12-05T05:57:27.621Z,41.90
2022-12-05T06:02:50.193Z,38.10
2022-12-05T06:08:12.587Z,39.90
2022-12-05T06:13:35.459Z,38.70
2022-12-05T06:18:58.769Z,38.60
2022-12-05T06:24:21.317Z,37.00
2022-12-05T06:29:43.973Z,38.53
2022-12-05T06:35:15.441Z,32.63
2022-12-05T06:40:42.790Z,33.90
2022-12-05T06:46:07.264Z,41.43
2022-12-05T06:51:29.428Z,41.87
2022-12-05T06:56:51.966Z,34.57
2022-12-05T07:02:14.526Z,39.23
2022-12-05T07:07:37.337Z,42.00
2022-12-05T07:12:59.611Z,40.27
2022-12-05T07:18:23.327Z,33.33
2022-12-05T07:23:46.745Z,41.43
2022-12-05T07:29:10.289Z,46.13
2022-12-05T07:34:33.221Z,39.57
2022-12-05T07:39:56.297Z,38.60
2022-12-05T07:45:22.367Z,42.43
2022-12-05T07:50:45.014Z,36.27
2022-12-05T07:56:09.545Z,33.67
2022-12-05T08:01:32.235Z,39.17
2022-12-05T08:06:54.520Z,38.77
2022-12-05T08:12:23.764Z,30.50
2022-12-05T08:17:46.701Z,28.60
2022-12-05T08:23:09.020Z,30.03
2022-12-05T08:28:33.021Z,32.83
2022-12-05T08:33:59.270Z,26.90
2022-12-05T08:39:22.845Z,30.40
2022-12-05T08:44:47.238Z,30.97
2022-12-05T08:50:09.978Z,30.03
2022-12-05T08:55:35.740Z,26.20
2022-12-05T09:01:06.365Z,26.03
2022-12-05T09:06:29.876Z,25.90
2022-12-05T09:11:52.281Z,39.73
2022-12-05T09:17:15.255Z,33.80
2022-12-05T09:22:38.014Z,27.93
2022-12-05T09:28:00.319Z,29.03
2022-12-05T09:33:23.690Z,32.57
2022-12-05T09:38:46.822Z,33.00
2022-12-05T09:44:21.226Z,32.77
2022-12-05T09:49:56.061Z,32.23
2022-12-05T09:55:21.120Z,34.97
2022-12-05T10:00:43.578Z,37.73
2022-12-05T10:06:13.185Z,46.23
2022-12-05T10:11:46.724Z,42.77
2022-12-05T10:17:23.546Z,48.17
2022-12-05T10:22:52.289Z,41.17
2022-12-05T10:28:47.301Z,48.57
2022-12-05T10:34:19.050Z,58.20
2022-12-05T10:39:41.772Z,48.87
2022-12-05T10:45:08.803Z,47.80
2022-12-05T10:50:37.114Z,49.87
2022-12-05T11:02:18.933Z,52.20
2022-12-05T11:07:44.532Z,54.43
2022-12-05T11:13:24.820Z,48.90
2022-12-05T11:18:49.433Z,51.03
2022-12-05T11:24:26.815Z,50.67
2022-12-05T11:30:04.552Z,42.37
2022-12-05T11:35:28.919Z,45.23
2022-12-05T11:41:28.642Z,41.17
2022-12-05T11:47:11.209Z,50.00
2022-12-05T11:52:39.028Z,41.27
2022-12-05T11:58:08.829Z,37.83
2022-12-05T12:03:39.799Z,43.33
2022-12-05T12:09:30.567Z,35.03
2022-12-05T12:15:31.645Z,40.67
2022-12-05T12:21:15.333Z,38.67
2022-12-05T12:26:53.530Z,41.87
2022-12-05T12:32:45.115Z,40.43
2022-12-05T12:38:10.508Z,42.40
2022-12-05T12:44:03.157Z,40.03
2022-12-05T12:49:46.705Z,39.50
2022-12-05T12:55:27.300Z,42.47
2022-12-05T13:01:08.258Z,47.93
2022-12-05T13:06:55.160Z,40.73
2022-12-05T13:12:25.021Z,40.70
2022-12-05T13:17:49.002Z,38.73
2022-12-05T13:23:29.300Z,39.77
2022-12-05T13:28:56.747Z,37.47
2022-12-05T13:34:35.276Z,29.97
2022-12-05T13:40:17.063Z,33.50
2022-12-05T13:45:40.721Z,39.10
2022-12-05T13:51:13.339Z,37.50
2022-12-05T13:57:02.498Z,33.63
2022-12-05T14:02:46.644Z,39.43
2022-12-05T14:08:30.940Z,35.13
2022-12-05T14:13:54.245Z,41.97
2022-12-05T14:19:45.435Z,44.93
2022-12-05T14:25:58.905Z,48.53
2022-12-05T14:31:44.963Z,51.53
2022-12-05T14:37:15.301Z,40.57
2022-12-05T14:42:53.017Z,51.87
2022-12-05T14:48:15.437Z,48.20
2022-12-05T14:53:43.079Z,52.47
2022-12-05T14:59:28.257Z,51.70
2022-12-05T15:04:58.730Z,49.30
2022-12-05T15:10:25.716Z,54.93
2022-12-05T15:16:00.599Z,60.07
2022-12-05T15:21:29.145Z,57.00
2022-12-05T15:26:56.364Z,60.30
2022-12-05T15:32:25.728Z,53.37
2022-12-05T15:38:02.434Z,52.30
2022-12-05T15:43:34.133Z,63.43
2022-12-05T15:49:00.462Z,57.83
2022-12-05T15:54:30.396Z,55.43
2022-12-05T16:00:07.914Z,53.53
2022-12-05T16:05:56.382Z,57.33
2022-12-05T16:11:19.473Z,47.20
2022-12-05T16:16:42.073Z,65.37
2022-12-05T16:22:13.445Z,59.37
2022-12-05T16:27:36.760Z,56.10
2022-12-05T16:33:05.638Z,58.10
2022-12-05T16:38:32.829Z,54.83
2022-12-05T16:43:54.989Z,62.80
2022-12-05T16:49:34.433Z,57.67
2022-12-05T16:54:57.040Z,58.53
2022-12-05T17:00:20.065Z,59.63
2022-12-05T17:05:42.406Z,58.93
2022-12-05T17:11:07.887Z,56.63
2022-12-05T17:16:30.352Z,53.30
2022-12-05T17:21:52.732Z,51.93
2022-12-05T17:27:15.018Z,54.70
2022-12-05T17:32:37.422Z,55.70
2022-12-05T17:38:00.080Z,55.90
2022-12-05T17:43:25.546Z,59.83
2022-12-05T17:48:50.902Z,63.33
2022-12-05T17:54:13.052Z,58.43
2022-12-05T17:59:35.389Z,57.17
2022-12-05T18:04:58.034Z,56.93
2022-12-05T18:10:23.960Z,60.10
2022-12-05T18:15:48.485Z,53.17
2022-12-05T18:21:12.796Z,54.00
2022-12-05T18:26:35.046Z,64.23
2022-12-05T18:31:57.481Z,58.03
2022-12-05T18:37:20.132Z,58.77
2022-12-05T18:42:42.442Z,57.70
2022-12-05T18:48:23.425Z,54.50
2022-12-05T18:53:53.416Z,64.53
2022-12-05T18:59:18.893Z,62.57
2022-12-05T19:04:41.407Z,55.57
2022-12-05T19:10:04.099Z,56.23
2022-12-05T19:15:26.623Z,60.67
2022-12-05T19:20:51.296Z,73.13
2022-12-05T19:26:13.831Z,59.87
2022-12-05T19:31:36.041Z,67.57
2022-12-05T19:36:58.636Z,68.00
2022-12-05T19:42:21.193Z,62.33
2022-12-05T19:47:43.336Z,63.90
2022-12-05T19:53:05.895Z,65.03
2022-12-05T19:58:28.739Z,72.30
2022-12-05T20:03:54.140Z,70.20
2022-12-05T20:09:22.383Z,70.80
2022-12-05T20:14:44.716Z,83.73
2022-12-05T20:20:07.644Z,75.60
2022-12-05T20:25:29.800Z,68.30
2022-12-05T20:30:52.177Z,79.23
2022-12-05T20:36:17.079Z,75.47
2022-12-05T20:41:39.895Z,82.60
2022-12-05T20:47:03.052Z,83.30
2022-12-05T20:52:25.181Z,76.23
2022-12-05T20:57:47.668Z,86.37
2022-12-05T21:03:15.713Z,84.10
2022-12-05T21:08:40.507Z,70.40
2022-12-05T21:14:05.096Z,63.47
2022-12-05T21:19:27.837Z,52.60
2022-12-05T21:24:50.266Z,45.83
2022-12-05T21:30:12.688Z,53.97
2022-12-05T21:35:35.189Z,52.33
2022-12-05T21:40:58.048Z,45.57
2022-12-05T21:46:20.755Z,47.47
2022-12-05T21:51:43.314Z,49.67
2022-12-05T21:57:05.633Z,40.60
2022-12-05T22:02:28.110Z,44.17
2022-12-05T22:07:50.486Z,37.10
2022-12-05T22:13:14.086Z,37.23
2022-12-05T22:18:37.062Z,39.70
2022-12-05T22:23:59.357Z,39.10
2022-12-05T22:29:21.691Z,37.93
2022-12-05T22:34:43.901Z,32.50
2022-12-05T22:40:06.913Z,40.20
2022-12-05T22:45:29.407Z,35.30
2022-12-05T22:50:54.379Z,35.70
2022-12-05T22:56:20.408Z,38.53
2022-12-05T23:01:42.800Z,35.17
2022-12-05T23:07:05.057Z,36.73
2022-12-05T23:12:27.457Z,39.23
2022-12-05T23:17:50.119Z,33.67
2022-12-05T23:23:12.744Z,41.50
2022-12-05T23:28:35.029Z,36.37
2022-12-05T23:34:02.685Z,34.97
2022-12-05T23:39:25.906Z,34.23
2022-12-05T23:44:51.429Z,36.27
2022-12-05T23:50:13.640Z,34.37
2022-12-05T23:55:36.237Z,32.07
